sensor_id;sensor_type;location;lat;lon;timestamp;P1;durP1;ratioP1;P2;durP2;ratioP2
76423;SDS011;65257;52.104;4.268;2023-01-20T00:02:01;11.02;;;6.18;;
76423;SDS011;65257;52.104;4.268;2023-01-20T00:04:27;11.48;;;6.18;;
76423;SDS011;65257;52.104;4.268;2023-01-20T00:06:53;10.45;;;6.53;;
76423;SDS011;65257;52.104;4.268;2023-01-20T00:09:18;11.73;;;4.05;;
76423;SDS011;65257;52.104;4.268;2023-01-20T00:11:44;11.88;;;3.45;;
76423;SDS011;65257;52.104;4.268;2023-01-20T00:14:10;10.75;;;3.75;;
76423;SDS011;65257;52.104;4.268;2023-01-20T00:16:35;9.13;;;2.60;;
76423;SDS011;65257;52.104;4.268;2023-01-20T00:19:01;9.80;;;3.13;;
76423;SDS011;65257;52.104;4.268;2023-01-20T00:21:27;14.40;;;3.47;;
76423;SDS011;65257;52.104;4.268;2023-01-20T00:23:53;11.55;;;3.15;;
76423;SDS011;65257;52.104;4.268;2023-01-20T00:26:19;6.10;;;2.38;;
76423;SDS011;65257;52.104;4.268;2023-01-20T00:28:46;6.25;;;3.25;;
76423;SDS011;65257;52.104;4.268;2023-01-20T00:31:16;7.40;;;2.40;;
76423;SDS011;65257;52.104;4.268;2023-01-20T00:33:47;8.55;;;3.20;;
76423;SDS011;65257;52.104;4.268;2023-01-20T00:36:14;9.45;;;2.72;;
76423;SDS011;65257;52.104;4.268;2023-01-20T00:38:40;8.55;;;2.83;;
76423;SDS011;65257;52.104;4.268;2023-01-20T00:41:07;11.90;;;2.45;;
76423;SDS011;65257;52.104;4.268;2023-01-20T00:43:32;8.70;;;2.92;;
76423;SDS011;65257;52.104;4.268;2023-01-20T00:45:58;6.95;;;2.85;;
76423;SDS011;65257;52.104;4.268;2023-01-20T00:48:24;13.00;;;3.00;;
76423;SDS011;65257;52.104;4.268;2023-01-20T00:50:49;9.38;;;2.80;;
76423;SDS011;65257;52.104;4.268;2023-01-20T00:53:15;8.80;;;2.85;;
76423;SDS011;65257;52.104;4.268;2023-01-20T00:55:40;12.32;;;2.58;;
76423;SDS011;65257;52.104;4.268;2023-01-20T00:58:06;12.57;;;3.53;;
76423;SDS011;65257;52.104;4.268;2023-01-20T01:00:31;8.40;;;3.08;;
76423;SDS011;65257;52.104;4.268;2023-01-20T01:02:57;5.78;;;2.17;;
76423;SDS011;65257;52.104;4.268;2023-01-20T01:05:23;7.07;;;2.70;;
76423;SDS011;65257;52.104;4.268;2023-01-20T01:07:48;10.95;;;3.00;;
76423;SDS011;65257;52.104;4.268;2023-01-20T01:10:14;9.40;;;2.60;;
76423;SDS011;65257;52.104;4.268;2023-01-20T01:12:39;10.77;;;3.15;;
76423;SDS011;65257;52.104;4.268;2023-01-20T01:15:05;9.05;;;2.33;;
76423;SDS011;65257;52.104;4.268;2023-01-20T01:17:31;7.22;;;2.58;;
76423;SDS011;65257;52.104;4.268;2023-01-20T01:19:56;10.80;;;3.50;;
76423;SDS011;65257;52.104;4.268;2023-01-20T01:22:22;5.25;;;2.58;;
76423;SDS011;65257;52.104;4.268;2023-01-20T01:24:47;13.60;;;6.63;;
76423;SDS011;65257;52.104;4.268;2023-01-20T01:27:13;14.02;;;6.93;;
76423;SDS011;65257;52.104;4.268;2023-01-20T01:29:38;17.73;;;7.70;;
76423;SDS011;65257;52.104;4.268;2023-01-20T01:32:04;14.68;;;7.45;;
76423;SDS011;65257;52.104;4.268;2023-01-20T01:34:30;27.23;;;9.25;;
76423;SDS011;65257;52.104;4.268;2023-01-20T01:36:55;27.75;;;9.57;;
76423;SDS011;65257;52.104;4.268;2023-01-20T01:39:21;19.90;;;8.38;;
76423;SDS011;65257;52.104;4.268;2023-01-20T01:41:47;27.13;;;10.30;;
76423;SDS011;65257;52.104;4.268;2023-01-20T01:44:12;16.58;;;9.00;;
76423;SDS011;65257;52.104;4.268;2023-01-20T01:46:39;21.00;;;8.38;;
76423;SDS011;65257;52.104;4.268;2023-01-20T01:49:08;20.55;;;9.80;;
76423;SDS011;65257;52.104;4.268;2023-01-20T01:51:40;20.40;;;9.38;;
76423;SDS011;65257;52.104;4.268;2023-01-20T01:54:14;19.80;;;8.55;;
76423;SDS011;65257;52.104;4.268;2023-01-20T01:56:42;24.35;;;10.02;;
76423;SDS011;65257;52.104;4.268;2023-01-20T01:59:11;22.50;;;9.95;;
76423;SDS011;65257;52.104;4.268;2023-01-20T02:01:38;19.30;;;9.40;;
76423;SDS011;65257;52.104;4.268;2023-01-20T02:04:09;19.80;;;9.30;;
76423;SDS011;65257;52.104;4.268;2023-01-20T02:06:40;18.08;;;9.20;;
76423;SDS011;65257;52.104;4.268;2023-01-20T02:09:08;20.98;;;9.30;;
76423;SDS011;65257;52.104;4.268;2023-01-20T02:11:35;19.98;;;9.50;;
76423;SDS011;65257;52.104;4.268;2023-01-20T02:14:05;18.50;;;9.82;;
76423;SDS011;65257;52.104;4.268;2023-01-20T02:16:51;17.67;;;8.07;;
76423;SDS011;65257;52.104;4.268;2023-01-20T02:30:55;13.02;;;6.25;;
76423;SDS011;65257;52.104;4.268;2023-01-20T02:33:48;16.05;;;6.47;;
76423;SDS011;65257;52.104;4.268;2023-01-20T02:36:33;18.70;;;7.20;;
76423;SDS011;65257;52.104;4.268;2023-01-20T02:39:07;17.75;;;8.30;;
76423;SDS011;65257;52.104;4.268;2023-01-20T02:41:57;16.95;;;8.85;;
76423;SDS011;65257;52.104;4.268;2023-01-20T02:44:30;16.50;;;7.97;;
76423;SDS011;65257;52.104;4.268;2023-01-20T02:49:38;18.23;;;8.05;;
76423;SDS011;65257;52.104;4.268;2023-01-20T02:52:20;14.32;;;5.82;;
76423;SDS011;65257;52.104;4.268;2023-01-20T02:54:48;12.93;;;5.85;;
76423;SDS011;65257;52.104;4.268;2023-01-20T02:57:20;14.43;;;6.20;;
76423;SDS011;65257;52.104;4.268;2023-01-20T02:59:51;13.60;;;6.20;;
76423;SDS011;65257;52.104;4.268;2023-01-20T03:02:20;16.83;;;6.95;;
76423;SDS011;65257;52.104;4.268;2023-01-20T03:05:04;11.73;;;6.25;;
76423;SDS011;65257;52.104;4.268;2023-01-20T03:07:33;15.57;;;5.95;;
76423;SDS011;65257;52.104;4.268;2023-01-20T03:10:02;11.80;;;5.25;;
76423;SDS011;65257;52.104;4.268;2023-01-20T03:12:36;11.05;;;4.35;;
76423;SDS011;65257;52.104;4.268;2023-01-20T03:15:06;10.68;;;4.13;;
76423;SDS011;65257;52.104;4.268;2023-01-20T03:17:32;11.57;;;4.93;;
76423;SDS011;65257;52.104;4.268;2023-01-20T03:19:59;9.60;;;4.40;;
76423;SDS011;65257;52.104;4.268;2023-01-20T03:22:25;14.07;;;5.40;;
76423;SDS011;65257;52.104;4.268;2023-01-20T03:24:50;11.15;;;5.55;;
76423;SDS011;65257;52.104;4.268;2023-01-20T03:27:16;11.15;;;5.20;;
76423;SDS011;65257;52.104;4.268;2023-01-20T03:29:42;12.45;;;6.10;;
76423;SDS011;65257;52.104;4.268;2023-01-20T03:32:07;11.98;;;6.10;;
76423;SDS011;65257;52.104;4.268;2023-01-20T03:34:35;10.77;;;5.35;;
76423;SDS011;65257;52.104;4.268;2023-01-20T03:37:04;11.52;;;4.60;;
76423;SDS011;65257;52.104;4.268;2023-01-20T03:39:30;11.20;;;5.20;;
76423;SDS011;65257;52.104;4.268;2023-01-20T03:42:05;13.10;;;5.45;;
76423;SDS011;65257;52.104;4.268;2023-01-20T03:52:37;9.02;;;4.65;;
76423;SDS011;65257;52.104;4.268;2023-01-20T03:55:53;9.20;;;4.72;;
76423;SDS011;65257;52.104;4.268;2023-01-20T03:58:03;9.85;;;5.00;;
76423;SDS011;65257;52.104;4.268;2023-01-20T04:00:33;11.70;;;4.70;;
76423;SDS011;65257;52.104;4.268;2023-01-20T04:03:02;8.80;;;4.95;;
76423;SDS011;65257;52.104;4.268;2023-01-20T04:05:32;9.48;;;4.60;;
76423;SDS011;65257;52.104;4.268;2023-01-20T04:08:01;11.45;;;5.88;;
76423;SDS011;65257;52.104;4.268;2023-01-20T04:10:29;10.05;;;5.40;;
76423;SDS011;65257;52.104;4.268;2023-01-20T04:12:56;9.65;;;5.28;;
76423;SDS011;65257;52.104;4.268;2023-01-20T04:15:22;11.60;;;5.43;;
76423;SDS011;65257;52.104;4.268;2023-01-20T04:17:49;14.15;;;6.32;;
76423;SDS011;65257;52.104;4.268;2023-01-20T04:20:15;13.52;;;6.05;;
76423;SDS011;65257;52.104;4.268;2023-01-20T04:22:51;13.13;;;6.40;;
76423;SDS011;65257;52.104;4.268;2023-01-20T04:25:28;12.98;;;5.95;;
76423;SDS011;65257;52.104;4.268;2023-01-20T04:27:54;15.18;;;7.10;;
76423;SDS011;65257;52.104;4.268;2023-01-20T04:30:20;12.77;;;5.97;;
76423;SDS011;65257;52.104;4.268;2023-01-20T04:32:45;15.27;;;7.10;;
76423;SDS011;65257;52.104;4.268;2023-01-20T04:35:16;14.13;;;6.93;;
76423;SDS011;65257;52.104;4.268;2023-01-20T04:37:43;15.55;;;7.07;;
76423;SDS011;65257;52.104;4.268;2023-01-20T04:40:09;15.70;;;6.63;;
76423;SDS011;65257;52.104;4.268;2023-01-20T04:42:35;9.93;;;3.35;;
76423;SDS011;65257;52.104;4.268;2023-01-20T04:45:01;7.28;;;2.63;;
76423;SDS011;65257;52.104;4.268;2023-01-20T04:47:30;4.22;;;1.90;;
76423;SDS011;65257;52.104;4.268;2023-01-20T04:49:56;6.25;;;1.95;;
76423;SDS011;65257;52.104;4.268;2023-01-20T04:52:21;8.68;;;2.00;;
76423;SDS011;65257;52.104;4.268;2023-01-20T04:54:47;8.65;;;1.60;;
76423;SDS011;65257;52.104;4.268;2023-01-20T04:57:12;6.38;;;2.00;;
76423;SDS011;65257;52.104;4.268;2023-01-20T04:59:38;5.55;;;2.22;;
76423;SDS011;65257;52.104;4.268;2023-01-20T05:02:03;10.05;;;2.60;;
76423;SDS011;65257;52.104;4.268;2023-01-20T05:04:28;5.60;;;1.40;;
76423;SDS011;65257;52.104;4.268;2023-01-20T05:06:54;4.63;;;1.30;;
76423;SDS011;65257;52.104;4.268;2023-01-20T05:09:19;2.22;;;1.23;;
76423;SDS011;65257;52.104;4.268;2023-01-20T05:11:44;3.30;;;1.38;;
76423;SDS011;65257;52.104;4.268;2023-01-20T05:14:10;8.27;;;1.65;;
76423;SDS011;65257;52.104;4.268;2023-01-20T05:16:36;7.05;;;1.83;;
76423;SDS011;65257;52.104;4.268;2023-01-20T05:19:02;3.10;;;1.38;;
76423;SDS011;65257;52.104;4.268;2023-01-20T05:21:27;2.88;;;1.08;;
76423;SDS011;65257;52.104;4.268;2023-01-20T05:23:53;4.18;;;0.88;;
76423;SDS011;65257;52.104;4.268;2023-01-20T05:26:19;2.95;;;1.10;;
76423;SDS011;65257;52.104;4.268;2023-01-20T05:28:46;2.42;;;1.15;;
76423;SDS011;65257;52.104;4.268;2023-01-20T05:31:12;4.95;;;1.40;;
76423;SDS011;65257;52.104;4.268;2023-01-20T05:33:37;6.20;;;1.88;;
76423;SDS011;65257;52.104;4.268;2023-01-20T05:36:07;6.60;;;1.52;;
76423;SDS011;65257;52.104;4.268;2023-01-20T05:38:33;4.93;;;1.58;;
76423;SDS011;65257;52.104;4.268;2023-01-20T05:41:02;3.20;;;1.77;;
76423;SDS011;65257;52.104;4.268;2023-01-20T05:43:29;9.15;;;2.35;;
76423;SDS011;65257;52.104;4.268;2023-01-20T05:45:55;5.80;;;1.83;;
76423;SDS011;65257;52.104;4.268;2023-01-20T05:48:20;4.57;;;1.65;;
76423;SDS011;65257;52.104;4.268;2023-01-20T05:50:46;4.60;;;1.90;;
76423;SDS011;65257;52.104;4.268;2023-01-20T05:53:12;6.18;;;2.58;;
76423;SDS011;65257;52.104;4.268;2023-01-20T05:55:38;4.82;;;1.75;;
76423;SDS011;65257;52.104;4.268;2023-01-20T05:58:03;3.13;;;1.42;;
76423;SDS011;65257;52.104;4.268;2023-01-20T06:00:30;4.85;;;1.58;;
76423;SDS011;65257;52.104;4.268;2023-01-20T06:02:56;5.13;;;2.15;;
76423;SDS011;65257;52.104;4.268;2023-01-20T06:05:22;10.20;;;2.25;;
76423;SDS011;65257;52.104;4.268;2023-01-20T06:07:47;4.85;;;2.10;;
76423;SDS011;65257;52.104;4.268;2023-01-20T06:10:13;5.22;;;1.83;;
76423;SDS011;65257;52.104;4.268;2023-01-20T06:12:40;5.47;;;1.98;;
76423;SDS011;65257;52.104;4.268;2023-01-20T06:15:06;7.90;;;2.40;;
76423;SDS011;65257;52.104;4.268;2023-01-20T06:17:31;10.32;;;1.80;;
76423;SDS011;65257;52.104;4.268;2023-01-20T06:19:57;5.07;;;1.20;;
76423;SDS011;65257;52.104;4.268;2023-01-20T06:22:22;7.75;;;1.13;;
76423;SDS011;65257;52.104;4.268;2023-01-20T06:24:48;5.85;;;1.30;;
76423;SDS011;65257;52.104;4.268;2023-01-20T06:27:13;11.00;;;1.10;;
76423;SDS011;65257;52.104;4.268;2023-01-20T06:29:39;1.92;;;0.93;;
76423;SDS011;65257;52.104;4.268;2023-01-20T06:32:05;6.03;;;1.00;;
76423;SDS011;65257;52.104;4.268;2023-01-20T06:34:30;3.45;;;1.10;;
76423;SDS011;65257;52.104;4.268;2023-01-20T06:36:56;7.45;;;1.20;;
76423;SDS011;65257;52.104;4.268;2023-01-20T06:39:21;8.57;;;2.78;;
76423;SDS011;65257;52.104;4.268;2023-01-20T06:41:46;4.25;;;1.92;;
76423;SDS011;65257;52.104;4.268;2023-01-20T06:44:12;12.23;;;4.72;;
76423;SDS011;65257;52.104;4.268;2023-01-20T06:46:37;9.38;;;5.28;;
76423;SDS011;65257;52.104;4.268;2023-01-20T06:49:03;11.18;;;5.65;;
76423;SDS011;65257;52.104;4.268;2023-01-20T06:51:28;12.88;;;6.13;;
76423;SDS011;65257;52.104;4.268;2023-01-20T06:53:54;11.82;;;6.03;;
76423;SDS011;65257;52.104;4.268;2023-01-20T06:56:20;13.57;;;6.35;;
76423;SDS011;65257;52.104;4.268;2023-01-20T06:58:46;12.45;;;6.93;;
76423;SDS011;65257;52.104;4.268;2023-01-20T07:01:13;18.27;;;8.68;;
76423;SDS011;65257;52.104;4.268;2023-01-20T07:03:42;14.93;;;7.70;;
76423;SDS011;65257;52.104;4.268;2023-01-20T07:06:15;19.05;;;7.70;;
76423;SDS011;65257;52.104;4.268;2023-01-20T07:08:52;15.38;;;8.13;;
76423;SDS011;65257;52.104;4.268;2023-01-20T07:11:17;15.10;;;6.70;;
76423;SDS011;65257;52.104;4.268;2023-01-20T07:13:43;16.48;;;8.02;;
76423;SDS011;65257;52.104;4.268;2023-01-20T07:16:09;16.48;;;8.02;;
76423;SDS011;65257;52.104;4.268;2023-01-20T07:18:34;16.30;;;8.68;;
76423;SDS011;65257;52.104;4.268;2023-01-20T07:21:01;17.27;;;8.23;;
76423;SDS011;65257;52.104;4.268;2023-01-20T07:23:27;15.63;;;8.05;;
76423;SDS011;65257;52.104;4.268;2023-01-20T07:26:06;15.70;;;7.85;;
76423;SDS011;65257;52.104;4.268;2023-01-20T07:28:33;15.70;;;8.18;;
76423;SDS011;65257;52.104;4.268;2023-01-20T07:33:39;16.85;;;8.30;;
76423;SDS011;65257;52.104;4.268;2023-01-20T07:36:05;17.63;;;8.13;;
76423;SDS011;65257;52.104;4.268;2023-01-20T07:38:31;17.58;;;9.25;;
76423;SDS011;65257;52.104;4.268;2023-01-20T07:40:57;17.33;;;8.75;;
76423;SDS011;65257;52.104;4.268;2023-01-20T07:43:24;18.02;;;8.35;;
76423;SDS011;65257;52.104;4.268;2023-01-20T07:45:53;17.10;;;8.30;;
76423;SDS011;65257;52.104;4.268;2023-01-20T07:48:19;20.60;;;9.27;;
76423;SDS011;65257;52.104;4.268;2023-01-20T07:50:45;20.10;;;10.52;;
76423;SDS011;65257;52.104;4.268;2023-01-20T07:53:10;19.65;;;8.85;;
76423;SDS011;65257;52.104;4.268;2023-01-20T07:55:35;16.83;;;8.55;;
76423;SDS011;65257;52.104;4.268;2023-01-20T07:58:01;18.05;;;10.77;;
76423;SDS011;65257;52.104;4.268;2023-01-20T08:00:26;18.45;;;9.20;;
76423;SDS011;65257;52.104;4.268;2023-01-20T08:02:52;13.20;;;6.88;;
76423;SDS011;65257;52.104;4.268;2023-01-20T08:05:17;11.57;;;5.88;;
76423;SDS011;65257;52.104;4.268;2023-01-20T08:07:42;12.90;;;6.95;;
76423;SDS011;65257;52.104;4.268;2023-01-20T08:10:08;15.60;;;6.95;;
76423;SDS011;65257;52.104;4.268;2023-01-20T08:12:34;13.57;;;5.20;;
76423;SDS011;65257;52.104;4.268;2023-01-20T08:14:59;8.98;;;2.78;;
76423;SDS011;65257;52.104;4.268;2023-01-20T08:17:24;8.80;;;3.33;;
76423;SDS011;65257;52.104;4.268;2023-01-20T08:19:50;10.05;;;2.75;;
76423;SDS011;65257;52.104;4.268;2023-01-20T08:22:15;6.35;;;1.67;;
76423;SDS011;65257;52.104;4.268;2023-01-20T08:24:41;7.13;;;2.50;;
76423;SDS011;65257;52.104;4.268;2023-01-20T08:27:06;4.75;;;2.15;;
76423;SDS011;65257;52.104;4.268;2023-01-20T08:29:31;6.25;;;1.80;;
76423;SDS011;65257;52.104;4.268;2023-01-20T08:32:00;7.13;;;2.30;;
76423;SDS011;65257;52.104;4.268;2023-01-20T08:34:26;7.68;;;1.20;;
76423;SDS011;65257;52.104;4.268;2023-01-20T08:36:53;6.15;;;1.13;;
76423;SDS011;65257;52.104;4.268;2023-01-20T08:39:21;4.38;;;0.93;;
76423;SDS011;65257;52.104;4.268;2023-01-20T08:41:47;7.07;;;1.52;;
76423;SDS011;65257;52.104;4.268;2023-01-20T08:44:13;8.50;;;2.08;;
76423;SDS011;65257;52.104;4.268;2023-01-20T08:46:39;5.60;;;2.78;;
76423;SDS011;65257;52.104;4.268;2023-01-20T08:49:06;9.45;;;5.15;;
76423;SDS011;65257;52.104;4.268;2023-01-20T08:51:33;7.82;;;4.15;;
76423;SDS011;65257;52.104;4.268;2023-01-20T08:53:59;9.60;;;3.72;;
76423;SDS011;65257;52.104;4.268;2023-01-20T08:56:25;7.13;;;4.10;;
76423;SDS011;65257;52.104;4.268;2023-01-20T08:58:52;8.18;;;4.28;;
76423;SDS011;65257;52.104;4.268;2023-01-20T09:01:19;14.55;;;6.45;;
76423;SDS011;65257;52.104;4.268;2023-01-20T09:03:47;13.88;;;5.53;;
76423;SDS011;65257;52.104;4.268;2023-01-20T09:06:12;12.50;;;6.70;;
76423;SDS011;65257;52.104;4.268;2023-01-20T09:08:38;10.82;;;5.68;;
76423;SDS011;65257;52.104;4.268;2023-01-20T09:11:11;9.07;;;5.55;;
76423;SDS011;65257;52.104;4.268;2023-01-20T09:13:41;11.35;;;5.63;;
76423;SDS011;65257;52.104;4.268;2023-01-20T09:16:07;10.95;;;4.63;;
76423;SDS011;65257;52.104;4.268;2023-01-20T09:18:36;14.38;;;6.22;;
76423;SDS011;65257;52.104;4.268;2023-01-20T09:21:01;12.02;;;2.92;;
76423;SDS011;65257;52.104;4.268;2023-01-20T09:23:31;10.38;;;2.20;;
76423;SDS011;65257;52.104;4.268;2023-01-20T09:25:58;8.95;;;1.17;;
76423;SDS011;65257;52.104;4.268;2023-01-20T09:28:24;12.80;;;3.10;;
76423;SDS011;65257;52.104;4.268;2023-01-20T09:30:49;4.75;;;0.85;;
76423;SDS011;65257;52.104;4.268;2023-01-20T09:33:14;11.18;;;1.58;;
76423;SDS011;65257;52.104;4.268;2023-01-20T09:35:40;6.53;;;1.33;;
76423;SDS011;65257;52.104;4.268;2023-01-20T09:38:06;9.30;;;2.08;;
76423;SDS011;65257;52.104;4.268;2023-01-20T09:41:04;7.32;;;1.50;;
76423;SDS011;65257;52.104;4.268;2023-01-20T09:44:02;21.52;;;2.28;;
76423;SDS011;65257;52.104;4.268;2023-01-20T10:06:38;10.80;;;1.73;;
76423;SDS011;65257;52.104;4.268;2023-01-20T10:09:10;2.67;;;0.85;;
76423;SDS011;65257;52.104;4.268;2023-01-20T10:11:45;11.00;;;1.75;;
76423;SDS011;65257;52.104;4.268;2023-01-20T10:16:49;8.50;;;1.50;;
76423;SDS011;65257;52.104;4.268;2023-01-20T10:19:25;7.43;;;1.40;;
76423;SDS011;65257;52.104;4.268;2023-01-20T10:22:10;6.88;;;1.35;;
76423;SDS011;65257;52.104;4.268;2023-01-20T10:25:03;7.90;;;2.75;;
76423;SDS011;65257;52.104;4.268;2023-01-20T10:27:37;7.93;;;1.98;;
76423;SDS011;65257;52.104;4.268;2023-01-20T10:30:10;10.18;;;2.60;;
76423;SDS011;65257;52.104;4.268;2023-01-20T10:32:37;7.50;;;2.08;;
76423;SDS011;65257;52.104;4.268;2023-01-20T10:35:13;9.52;;;2.28;;
76423;SDS011;65257;52.104;4.268;2023-01-20T10:37:43;4.82;;;1.90;;
76423;SDS011;65257;52.104;4.268;2023-01-20T10:42:55;8.60;;;3.80;;
76423;SDS011;65257;52.104;4.268;2023-01-20T10:45:41;15.13;;;2.90;;
76423;SDS011;65257;52.104;4.268;2023-01-20T10:50:58;7.90;;;2.67;;
76423;SDS011;65257;52.104;4.268;2023-01-20T10:58:36;13.45;;;3.15;;
76423;SDS011;65257;52.104;4.268;2023-01-20T11:01:10;7.57;;;2.42;;
76423;SDS011;65257;52.104;4.268;2023-01-20T11:03:42;17.42;;;2.97;;
76423;SDS011;65257;52.104;4.268;2023-01-20T11:06:15;14.70;;;2.38;;
76423;SDS011;65257;52.104;4.268;2023-01-20T11:08:47;12.52;;;4.80;;
76423;SDS011;65257;52.104;4.268;2023-01-20T11:11:34;16.48;;;3.58;;
76423;SDS011;65257;52.104;4.268;2023-01-20T11:13:58;19.05;;;3.65;;
76423;SDS011;65257;52.104;4.268;2023-01-20T11:16:27;16.75;;;2.25;;
76423;SDS011;65257;52.104;4.268;2023-01-20T11:21:21;15.20;;;2.63;;
76423;SDS011;65257;52.104;4.268;2023-01-20T11:23:52;9.20;;;1.80;;
76423;SDS011;65257;52.104;4.268;2023-01-20T11:26:23;18.38;;;3.83;;
76423;SDS011;65257;52.104;4.268;2023-01-20T11:28:53;18.83;;;2.28;;
76423;SDS011;65257;52.104;4.268;2023-01-20T11:31:19;7.07;;;1.67;;
76423;SDS011;65257;52.104;4.268;2023-01-20T11:36:22;15.25;;;2.60;;
76423;SDS011;65257;52.104;4.268;2023-01-20T11:38:51;16.00;;;2.92;;
76423;SDS011;65257;52.104;4.268;2023-01-20T11:41:29;13.32;;;2.38;;
76423;SDS011;65257;52.104;4.268;2023-01-20T11:43:58;4.32;;;1.27;;
76423;SDS011;65257;52.104;4.268;2023-01-20T11:46:29;13.20;;;1.77;;
76423;SDS011;65257;52.104;4.268;2023-01-20T11:49:12;4.72;;;1.60;;
76423;SDS011;65257;52.104;4.268;2023-01-20T11:51:44;8.77;;;1.10;;
76423;SDS011;65257;52.104;4.268;2023-01-20T11:54:19;4.05;;;1.23;;
76423;SDS011;65257;52.104;4.268;2023-01-20T11:56:58;11.38;;;1.50;;
76423;SDS011;65257;52.104;4.268;2023-01-20T11:59:30;5.13;;;1.20;;
76423;SDS011;65257;52.104;4.268;2023-01-20T12:04:43;8.18;;;1.83;;
76423;SDS011;65257;52.104;4.268;2023-01-20T12:07:27;13.63;;;1.73;;
76423;SDS011;65257;52.104;4.268;2023-01-20T12:10:00;6.25;;;1.17;;
76423;SDS011;65257;52.104;4.268;2023-01-20T12:15:15;7.95;;;1.67;;
76423;SDS011;65257;52.104;4.268;2023-01-20T12:17:58;11.52;;;2.25;;
76423;SDS011;65257;52.104;4.268;2023-01-20T12:20:28;12.82;;;1.67;;
76423;SDS011;65257;52.104;4.268;2023-01-20T12:23:31;10.63;;;1.40;;
76423;SDS011;65257;52.104;4.268;2023-01-20T12:26:03;8.75;;;1.60;;
76423;SDS011;65257;52.104;4.268;2023-01-20T12:28:37;8.50;;;1.50;;
76423;SDS011;65257;52.104;4.268;2023-01-20T12:31:03;17.15;;;2.03;;
76423;SDS011;65257;52.104;4.268;2023-01-20T12:33:34;7.60;;;1.90;;
76423;SDS011;65257;52.104;4.268;2023-01-20T12:41:31;9.80;;;2.00;;
76423;SDS011;65257;52.104;4.268;2023-01-20T12:46:41;10.82;;;1.33;;
76423;SDS011;65257;52.104;4.268;2023-01-20T12:52:15;11.40;;;1.45;;
76423;SDS011;65257;52.104;4.268;2023-01-20T12:57:45;12.35;;;2.42;;
76423;SDS011;65257;52.104;4.268;2023-01-20T13:08:33;8.80;;;1.83;;
76423;SDS011;65257;52.104;4.268;2023-01-20T13:11:18;11.95;;;2.85;;
76423;SDS011;65257;52.104;4.268;2023-01-20T13:20:00;4.20;;;0.88;;
76423;SDS011;65257;52.104;4.268;2023-01-20T13:22:21;6.20;;;2.13;;
76423;SDS011;65257;52.104;4.268;2023-01-20T13:24:48;7.85;;;2.05;;
76423;SDS011;65257;52.104;4.268;2023-01-20T13:27:18;6.88;;;1.23;;
76423;SDS011;65257;52.104;4.268;2023-01-20T13:37:47;9.05;;;2.38;;
76423;SDS011;65257;52.104;4.268;2023-01-20T13:40:45;3.35;;;1.38;;
76423;SDS011;65257;52.104;4.268;2023-01-20T13:45:44;7.10;;;2.20;;
76423;SDS011;65257;52.104;4.268;2023-01-20T13:50:35;5.47;;;2.25;;
76423;SDS011;65257;52.104;4.268;2023-01-20T13:53:04;7.68;;;2.55;;
76423;SDS011;65257;52.104;4.268;2023-01-20T14:03:38;6.22;;;2.20;;
76423;SDS011;65257;52.104;4.268;2023-01-20T14:08:27;5.97;;;2.28;;
76423;SDS011;65257;52.104;4.268;2023-01-20T14:11:12;9.45;;;1.90;;
76423;SDS011;65257;52.104;4.268;2023-01-20T14:13:40;7.20;;;1.85;;
76423;SDS011;65257;52.104;4.268;2023-01-20T14:16:17;5.28;;;1.77;;
76423;SDS011;65257;52.104;4.268;2023-01-20T14:18:48;6.13;;;2.08;;
76423;SDS011;65257;52.104;4.268;2023-01-20T14:21:18;6.20;;;1.80;;
76423;SDS011;65257;52.104;4.268;2023-01-20T14:23:47;6.75;;;2.15;;
76423;SDS011;65257;52.104;4.268;2023-01-20T14:26:23;4.85;;;2.00;;
76423;SDS011;65257;52.104;4.268;2023-01-20T14:28:51;4.15;;;1.52;;
76423;SDS011;65257;52.104;4.268;2023-01-20T14:31:28;5.68;;;1.75;;
76423;SDS011;65257;52.104;4.268;2023-01-20T14:39:18;5.55;;;2.55;;
76423;SDS011;65257;52.104;4.268;2023-01-20T14:41:47;8.10;;;5.55;;
76423;SDS011;65257;52.104;4.268;2023-01-20T14:44:24;6.63;;;1.90;;
76423;SDS011;65257;52.104;4.268;2023-01-20T14:46:58;4.38;;;1.95;;
76423;SDS011;65257;52.104;4.268;2023-01-20T14:49:34;3.30;;;2.33;;
76423;SDS011;65257;52.104;4.268;2023-01-20T14:52:03;5.75;;;2.20;;
76423;SDS011;65257;52.104;4.268;2023-01-20T14:54:37;8.02;;;2.60;;
76423;SDS011;65257;52.104;4.268;2023-01-20T14:57:23;5.85;;;3.05;;
76423;SDS011;65257;52.104;4.268;2023-01-20T15:00:35;5.82;;;3.03;;
76423;SDS011;65257;52.104;4.268;2023-01-20T15:06:30;10.85;;;5.57;;
76423;SDS011;65257;52.104;4.268;2023-01-20T15:16:18;17.90;;;8.45;;
76423;SDS011;65257;52.104;4.268;2023-01-20T15:21:42;12.40;;;5.78;;
76423;SDS011;65257;52.104;4.268;2023-01-20T15:26:43;12.93;;;6.45;;
76423;SDS011;65257;52.104;4.268;2023-01-20T15:29:23;12.82;;;6.45;;
76423;SDS011;65257;52.104;4.268;2023-01-20T15:31:49;14.50;;;6.75;;
76423;SDS011;65257;52.104;4.268;2023-01-20T15:34:15;10.55;;;6.22;;
76423;SDS011;65257;52.104;4.268;2023-01-20T15:36:42;9.07;;;4.93;;
76423;SDS011;65257;52.104;4.268;2023-01-20T15:39:15;9.05;;;5.57;;
76423;SDS011;65257;52.104;4.268;2023-01-20T15:41:42;10.25;;;6.00;;
76423;SDS011;65257;52.104;4.268;2023-01-20T15:44:07;11.98;;;6.72;;
76423;SDS011;65257;52.104;4.268;2023-01-20T15:46:32;12.65;;;6.10;;
76423;SDS011;65257;52.104;4.268;2023-01-20T15:48:58;12.90;;;6.07;;
76423;SDS011;65257;52.104;4.268;2023-01-20T15:51:24;5.32;;;3.30;;
76423;SDS011;65257;52.104;4.268;2023-01-20T15:53:49;11.60;;;5.95;;
76423;SDS011;65257;52.104;4.268;2023-01-20T15:56:22;15.23;;;7.50;;
76423;SDS011;65257;52.104;4.268;2023-01-20T15:58:49;29.63;;;12.52;;
76423;SDS011;65257;52.104;4.268;2023-01-20T16:01:16;33.15;;;12.70;;
76423;SDS011;65257;52.104;4.268;2023-01-20T16:03:43;57.35;;;21.33;;
76423;SDS011;65257;52.104;4.268;2023-01-20T16:06:12;25.35;;;10.52;;
76423;SDS011;65257;52.104;4.268;2023-01-20T16:08:39;14.05;;;6.32;;
76423;SDS011;65257;52.104;4.268;2023-01-20T16:11:06;15.20;;;8.40;;
76423;SDS011;65257;52.104;4.268;2023-01-20T16:13:32;12.50;;;6.05;;
76423;SDS011;65257;52.104;4.268;2023-01-20T16:15:59;11.90;;;5.85;;
76423;SDS011;65257;52.104;4.268;2023-01-20T16:18:25;16.17;;;8.95;;
76423;SDS011;65257;52.104;4.268;2023-01-20T16:20:50;20.30;;;9.90;;
76423;SDS011;65257;52.104;4.268;2023-01-20T16:23:16;16.58;;;8.70;;
76423;SDS011;65257;52.104;4.268;2023-01-20T16:25:42;12.85;;;6.45;;
76423;SDS011;65257;52.104;4.268;2023-01-20T16:28:14;18.05;;;9.35;;
76423;SDS011;65257;52.104;4.268;2023-01-20T16:30:43;16.85;;;9.57;;
76423;SDS011;65257;52.104;4.268;2023-01-20T16:33:16;19.95;;;9.45;;
76423;SDS011;65257;52.104;4.268;2023-01-20T16:38:14;21.67;;;9.80;;
76423;SDS011;65257;52.104;4.268;2023-01-20T16:40:56;24.38;;;11.93;;
76423;SDS011;65257;52.104;4.268;2023-01-20T16:43:28;17.70;;;9.90;;
76423;SDS011;65257;52.104;4.268;2023-01-20T16:45:53;24.48;;;10.70;;
76423;SDS011;65257;52.104;4.268;2023-01-20T16:48:23;20.27;;;12.23;;
76423;SDS011;65257;52.104;4.268;2023-01-20T16:50:50;26.13;;;12.38;;
76423;SDS011;65257;52.104;4.268;2023-01-20T16:53:17;28.25;;;13.18;;
76423;SDS011;65257;52.104;4.268;2023-01-20T16:55:46;16.65;;;8.10;;
76423;SDS011;65257;52.104;4.268;2023-01-20T16:58:13;27.67;;;14.02;;
76423;SDS011;65257;52.104;4.268;2023-01-20T17:00:39;26.05;;;15.05;;
76423;SDS011;65257;52.104;4.268;2023-01-20T17:03:05;27.80;;;11.82;;
76423;SDS011;65257;52.104;4.268;2023-01-20T17:05:30;45.65;;;23.23;;
76423;SDS011;65257;52.104;4.268;2023-01-20T17:07:56;26.05;;;11.75;;
76423;SDS011;65257;52.104;4.268;2023-01-20T17:10:23;27.60;;;13.25;;
76423;SDS011;65257;52.104;4.268;2023-01-20T17:12:54;36.92;;;14.27;;
76423;SDS011;65257;52.104;4.268;2023-01-20T17:15:20;29.77;;;13.95;;